Terminal Aerodrome Forecast
Issued by NWS

Home | Current Version | Previous Version | Text Only | Print | Product List | Glossary On
Versions: 1 2 3 4 5 6 7 8 9 10 11 12 13 14 15 16
000
FTUS41 KPHI 292332
TAFPNE
TAF
KPNE 292332Z 3000/3024 23007KT P6SM SCT250
     FM300400 20005KT P6SM BKN150
     FM300900 22010KT P6SM -RA BKN050
     FM301500 26012G20KT P6SM FEW025 BKN050
     FM302100 29015G25KT P6SM SCT100=

USA.gov is the U.S. government's official web portal to all federal, state and local government web resources and services.